Terminal Aerodrome Forecast
Issued by NWS Sioux Falls, SD

Home | Current Version | Previous Version | Text Only | Print | Product List | Glossary Off
Versions: 1 2 3 4 5 6 7 8 9 10 11 12 13 14 15 16 17 18 19 20 21

000
FTUS43 KFSD 231738
TAFHON
TAF
KHON 231738Z 2318/2418 14013G20KT P6SM OVC040
     FM232300 14011KT P6SM OVC035
     FM240400 11009KT P6SM OVC025
     FM240900 10007KT 5SM -SHRA BR OVC015
     FM241400 07011KT 4SM SHRA BR OVC012=

USA.gov is the U.S. government's official web portal to all federal, state and local government web resources and services.